PLF102 UTDD-RKSM
Flight info
| Callsign | PLF102 |
|---|---|
| Flight time | N/A |
| Altitude | 37000 |
| Route | JD7A JD DCT POMIR L181 AGVUT/K0837S1130 L181 DSC B215 MAGIV W187 TUSLI W112 BILDA DCT NIRUV B215 GODON W87 PARTU G212 VYK W34 ANRAT A326 DONVO G597 AGAVO/N0457F370 Y644 MONSI |
| Aircraft | B737/M-SDE2E3FGHIRWXY/LB1 |
Departure
| Time | 2026-04-14 13:24 |
|---|---|
| Airport | Dushanbe International Airport (UTDD) |
Arrival
| Time | N/A |
|---|---|
| Airport | Seoul Air Base (K-16) (RKSM) |
| Time | Latitude | Longitude | Altitude | Speed | Heading |
|---|---|---|---|---|---|
| 2026-04-14 12:16 | 38.54741 | 68.81700 | 2572 ft | 0 kts | 90° |
| 2026-04-14 13:17 | 38.54741 | 68.81702 | 2572 ft | 0 kts | 90° |
| 2026-04-14 13:17 | 38.54741 | 68.81706 | 2572 ft | 1 kts | 90° |
| 2026-04-14 13:18 | 38.54741 | 68.81710 | 2572 ft | 0 kts | 90° |
| 2026-04-14 13:18 | 38.54741 | 68.81718 | 2572 ft | 8 kts | 90° |
| 2026-04-14 13:18 | 38.54724 | 68.81771 | 2570 ft | 0 kts | 145° |
| 2026-04-14 13:18 | 38.54721 | 68.81771 | 2569 ft | 1 kts | 167° |
| 2026-04-14 13:19 | 38.54710 | 68.81769 | 2571 ft | 2 kts | 194° |
| 2026-04-14 13:19 | 38.54699 | 68.81757 | 2571 ft | 2 kts | 232° |
| 2026-04-14 13:19 | 38.54691 | 68.81644 | 2572 ft | 35 kts | 270° |
| 2026-04-14 13:19 | 38.54684 | 68.81338 | 2573 ft | 33 kts | 270° |
| 2026-04-14 13:20 | 38.54684 | 68.81064 | 2578 ft | 29 kts | 270° |
| 2026-04-14 13:20 | 38.54683 | 68.80830 | 2577 ft | 24 kts | 270° |
| 2026-04-14 13:20 | 38.54668 | 68.80679 | 2577 ft | 10 kts | 228° |
| 2026-04-14 13:20 | 38.54648 | 68.80666 | 2582 ft | 2 kts | 184° |
| 2026-04-14 13:21 | 38.54638 | 68.80666 | 2578 ft | 0 kts | 180° |
| 2026-04-14 13:21 | 38.54632 | 68.80667 | 2580 ft | 1 kts | 177° |
| 2026-04-14 13:21 | 38.54629 | 68.80667 | 2576 ft | 0 kts | 178° |
| 2026-04-14 13:21 | 38.54622 | 68.80667 | 2578 ft | 1 kts | 178° |
| 2026-04-14 13:22 | 38.54614 | 68.80667 | 2579 ft | 1 kts | 179° |
| 2026-04-14 13:22 | 38.54610 | 68.80667 | 2579 ft | 0 kts | 179° |
| 2026-04-14 13:22 | 38.54609 | 68.80667 | 2579 ft | 1 kts | 179° |
| 2026-04-14 13:22 | 38.54602 | 68.80668 | 2577 ft | 1 kts | 179° |
| 2026-04-14 13:23 | 38.54594 | 68.80668 | 2582 ft | 1 kts | 179° |
| 2026-04-14 13:23 | 38.54454 | 68.80669 | 2578 ft | 26 kts | 179° |
| 2026-04-14 13:23 | 38.54369 | 68.80823 | 2578 ft | 21 kts | 81° |
| 2026-04-14 13:23 | 38.54370 | 68.80990 | 2577 ft | 18 kts | 90° |
| 2026-04-14 13:24 | 38.54369 | 68.81356 | 2575 ft | 75 kts | 90° |
| 2026-04-14 13:24 | 38.54359 | 68.83738 | 2663 ft | 177 kts | 92° |
| 2026-04-14 13:24 | 38.54318 | 68.85325 | 3282 ft | 185 kts | 92° |
| 2026-04-14 13:25 | 38.54306 | 68.87105 | 3632 ft | 216 kts | 89° |
| 2026-04-14 13:25 | 38.54320 | 68.89154 | 3883 ft | 246 kts | 89° |
| 2026-04-14 13:26 | 38.54449 | 68.96180 | 6254 ft | 268 kts | 76° |
| 2026-04-14 13:26 | 38.55082 | 68.98439 | 7045 ft | 273 kts | 69° |
| 2026-04-14 13:26 | 38.55787 | 69.00713 | 7789 ft | 280 kts | 69° |
| 2026-04-14 13:26 | 38.56511 | 69.03109 | 8169 ft | 300 kts | 69° |
| 2026-04-14 13:27 | 38.57286 | 69.05713 | 8301 ft | 330 kts | 69° |
| 2026-04-14 13:27 | 38.58107 | 69.08603 | 8296 ft | 362 kts | 75° |
| 2026-04-14 13:27 | 38.58218 | 69.11878 | 8605 ft | 380 kts | 98° |
| 2026-04-14 13:27 | 38.57792 | 69.15285 | 8942 ft | 389 kts | 102° |
| 2026-04-14 13:28 | 38.57159 | 69.18557 | 9234 ft | 369 kts | 106° |
| 2026-04-14 13:28 | 38.56469 | 69.21630 | 9530 ft | 351 kts | 106° |
| 2026-04-14 13:28 | 38.55823 | 69.24562 | 9841 ft | 334 kts | 106° |
| 2026-04-14 13:28 | 38.55229 | 69.27356 | 10121 ft | 319 kts | 105° |
| 2026-04-14 13:29 | 38.54670 | 69.30035 | 10548 ft | 307 kts | 104° |
| 2026-04-14 13:29 | 38.54374 | 69.32689 | 11417 ft | 297 kts | 90° |
| 2026-04-14 13:29 | 38.54418 | 69.35273 | 12367 ft | 286 kts | 89° |
| 2026-04-14 13:29 | 38.54495 | 69.37809 | 13024 ft | 287 kts | 89° |
| 2026-04-14 13:30 | 38.54577 | 69.40377 | 13551 ft | 291 kts | 89° |
| 2026-04-14 13:30 | 38.54657 | 69.42980 | 14050 ft | 295 kts | 89° |
| 2026-04-14 13:30 | 38.54735 | 69.45608 | 14530 ft | 297 kts | 89° |
| 2026-04-14 13:30 | 38.54809 | 69.48254 | 15018 ft | 300 kts | 89° |
| 2026-04-14 13:31 | 38.54881 | 69.50898 | 15502 ft | 303 kts | 89° |
| 2026-04-14 13:31 | 38.54952 | 69.53597 | 15969 ft | 304 kts | 89° |
| 2026-04-14 13:31 | 38.55023 | 69.56299 | 16511 ft | 305 kts | 89° |
| 2026-04-14 13:31 | 38.55091 | 69.59016 | 16984 ft | 307 kts | 89° |
| 2026-04-14 13:32 | 38.55158 | 69.61736 | 17515 ft | 306 kts | 89° |
| 2026-04-14 13:32 | 38.55224 | 69.64460 | 18016 ft | 306 kts | 89° |
| 2026-04-14 13:32 | 38.55289 | 69.67200 | 18296 ft | 315 kts | 89° |
| 2026-04-14 13:32 | 38.55356 | 69.70051 | 18564 ft | 323 kts | 89° |
| 2026-04-14 13:33 | 38.55422 | 69.72900 | 19127 ft | 320 kts | 89° |
| 2026-04-14 13:33 | 38.55488 | 69.75752 | 19526 ft | 322 kts | 89° |
| 2026-04-14 13:33 | 38.55554 | 69.78589 | 20167 ft | 315 kts | 89° |
| 2026-04-14 13:33 | 38.55618 | 69.81360 | 20698 ft | 313 kts | 89° |
| 2026-04-14 13:34 | 38.55746 | 69.87165 | 20888 ft | 340 kts | 89° |
| 2026-04-14 13:34 | 38.55812 | 69.90245 | 20987 ft | 353 kts | 89° |
| 2026-04-14 13:34 | 38.55881 | 69.93444 | 21108 ft | 367 kts | 89° |
| 2026-04-14 13:35 | 38.55951 | 69.96763 | 21209 ft | 381 kts | 89° |
| 2026-04-14 13:35 | 38.56023 | 70.00190 | 21317 ft | 394 kts | 89° |
| 2026-04-14 13:35 | 38.56097 | 70.03752 | 21414 ft | 407 kts | 89° |
| 2026-04-14 13:35 | 38.56172 | 70.07421 | 21512 ft | 419 kts | 89° |
| 2026-04-14 13:36 | 38.56248 | 70.11202 | 21599 ft | 432 kts | 89° |
| 2026-04-14 13:36 | 38.56325 | 70.15084 | 21686 ft | 443 kts | 89° |
| 2026-04-14 13:36 | 38.56402 | 70.19013 | 21770 ft | 453 kts | 89° |
| 2026-04-14 13:36 | 38.56480 | 70.23086 | 21854 ft | 464 kts | 89° |
| 2026-04-14 13:37 | 38.56559 | 70.27248 | 21910 ft | 473 kts | 89° |
| 2026-04-14 13:37 | 38.56637 | 70.31481 | 22073 ft | 480 kts | 89° |
| 2026-04-14 13:37 | 38.56714 | 70.35760 | 22319 ft | 484 kts | 89° |
| 2026-04-14 13:37 | 38.56790 | 70.40066 | 22596 ft | 486 kts | 89° |
| 2026-04-14 13:38 | 38.56865 | 70.44404 | 22923 ft | 488 kts | 89° |
| 2026-04-14 13:38 | 38.56939 | 70.48740 | 23231 ft | 490 kts | 89° |
| 2026-04-14 13:38 | 38.57011 | 70.53102 | 23490 ft | 493 kts | 89° |
| 2026-04-14 13:38 | 38.57083 | 70.57499 | 23725 ft | 495 kts | 89° |
| 2026-04-14 13:39 | 38.57150 | 70.61906 | 23970 ft | 497 kts | 89° |
| 2026-04-14 13:39 | 38.57218 | 70.66327 | 24211 ft | 499 kts | 89° |
| 2026-04-14 13:39 | 38.57286 | 70.70776 | 24432 ft | 501 kts | 89° |
| 2026-04-14 13:39 | 38.57352 | 70.75233 | 24670 ft | 502 kts | 89° |
| 2026-04-14 13:40 | 38.57416 | 70.79705 | 24907 ft | 504 kts | 89° |
| 2026-04-14 13:40 | 38.57480 | 70.84198 | 25089 ft | 507 kts | 89° |
| 2026-04-14 13:40 | 38.57540 | 70.88654 | 25323 ft | 509 kts | 89° |
| 2026-04-14 13:40 | 38.57600 | 70.93174 | 25582 ft | 509 kts | 89° |
| 2026-04-14 13:41 | 38.57657 | 70.97703 | 25750 ft | 512 kts | 89° |
| 2026-04-14 13:41 | 38.57718 | 71.02271 | 25950 ft | 514 kts | 89° |
| 2026-04-14 13:41 | 38.57772 | 71.06844 | 26094 ft | 515 kts | 89° |
| 2026-04-14 13:41 | 38.57824 | 71.11429 | 26308 ft | 517 kts | 89° |
| 2026-04-14 13:42 | 38.57874 | 71.16023 | 26557 ft | 517 kts | 89° |
| 2026-04-14 13:42 | 38.57923 | 71.20620 | 26873 ft | 516 kts | 89° |
| 2026-04-14 13:42 | 38.57970 | 71.25196 | 27163 ft | 516 kts | 89° |
| 2026-04-14 13:42 | 38.58016 | 71.29792 | 27395 ft | 516 kts | 89° |
| 2026-04-14 13:43 | 38.58061 | 71.34380 | 27703 ft | 516 kts | 89° |
| 2026-04-14 13:43 | 38.58104 | 71.38963 | 28003 ft | 516 kts | 89° |
| 2026-04-14 13:43 | 38.58145 | 71.43545 | 28252 ft | 517 kts | 89° |
| 2026-04-14 13:43 | 38.58184 | 71.48143 | 28484 ft | 517 kts | 89° |
| 2026-04-14 13:44 | 38.58221 | 71.52738 | 28786 ft | 516 kts | 89° |
| 2026-04-14 13:44 | 38.58258 | 71.57330 | 29059 ft | 517 kts | 89° |
| 2026-04-14 13:44 | 38.58263 | 71.61860 | 29258 ft | 517 kts | 92° |
| 2026-04-14 13:44 | 38.57911 | 71.66426 | 29521 ft | 517 kts | 101° |
| 2026-04-14 13:45 | 38.57168 | 71.70913 | 29824 ft | 516 kts | 103° |
| 2026-04-14 13:45 | 38.56365 | 71.75383 | 30014 ft | 516 kts | 104° |
| 2026-04-14 13:45 | 38.55547 | 71.79849 | 30286 ft | 516 kts | 104° |
| 2026-04-14 13:45 | 38.54736 | 71.84312 | 30597 ft | 514 kts | 104° |
| 2026-04-14 13:46 | 38.53940 | 71.88764 | 30867 ft | 514 kts | 103° |
| 2026-04-14 13:46 | 38.53158 | 71.93206 | 31214 ft | 508 kts | 103° |
| 2026-04-14 13:46 | 38.52407 | 71.97519 | 32164 ft | 489 kts | 103° |
| 2026-04-14 13:46 | 38.51683 | 72.01700 | 33040 ft | 474 kts | 103° |
| 2026-04-14 13:47 | 38.50985 | 72.05736 | 33905 ft | 458 kts | 104° |
| 2026-04-14 13:47 | 38.50312 | 72.09622 | 34753 ft | 438 kts | 104° |
| 2026-04-14 13:47 | 38.49668 | 72.13330 | 35487 ft | 420 kts | 104° |
| 2026-04-14 13:47 | 38.49036 | 72.16947 | 35717 ft | 419 kts | 104° |
| 2026-04-14 13:48 | 38.48388 | 72.20625 | 35474 ft | 431 kts | 104° |
| 2026-04-14 13:48 | 38.47720 | 72.24410 | 35173 ft | 443 kts | 104° |
| 2026-04-14 13:48 | 38.47036 | 72.28280 | 34977 ft | 452 kts | 104° |
| 2026-04-14 13:49 | 38.45645 | 72.36161 | 35189 ft | 452 kts | 104° |
| 2026-04-14 13:49 | 38.44961 | 72.40033 | 35621 ft | 441 kts | 104° |
| 2026-04-14 13:49 | 38.44286 | 72.43837 | 35804 ft | 440 kts | 104° |
| 2026-04-14 13:50 | 38.42915 | 72.51528 | 35490 ft | 456 kts | 104° |
| 2026-04-14 13:50 | 38.41451 | 72.59561 | 34754 ft | 480 kts | 104° |
| 2026-04-14 13:50 | 38.40701 | 72.63734 | 34640 ft | 483 kts | 104° |
| 2026-04-14 13:51 | 38.39955 | 72.67925 | 34612 ft | 487 kts | 104° |
| 2026-04-14 13:51 | 38.38446 | 72.76369 | 34567 ft | 496 kts | 104° |
| 2026-04-14 13:52 | 38.36890 | 72.84991 | 34727 ft | 499 kts | 104° |
| 2026-04-14 13:52 | 38.36109 | 72.89299 | 34962 ft | 497 kts | 104° |
| 2026-04-14 13:52 | 38.35329 | 72.93582 | 35129 ft | 496 kts | 104° |
| 2026-04-14 13:52 | 38.34547 | 72.97860 | 35238 ft | 497 kts | 104° |
| 2026-04-14 13:53 | 38.33762 | 73.02153 | 35338 ft | 497 kts | 104° |
| 2026-04-14 13:53 | 38.32976 | 73.06437 | 35466 ft | 497 kts | 104° |
| 2026-04-14 13:53 | 38.32188 | 73.10723 | 35606 ft | 496 kts | 104° |
| 2026-04-14 13:53 | 38.31400 | 73.14999 | 35724 ft | 496 kts | 104° |
| 2026-04-14 13:54 | 38.30610 | 73.19276 | 35837 ft | 496 kts | 104° |
| 2026-04-14 13:54 | 38.29820 | 73.23554 | 35955 ft | 496 kts | 104° |
| 2026-04-14 13:54 | 38.29030 | 73.27818 | 36100 ft | 496 kts | 104° |
| 2026-04-14 13:55 | 38.27440 | 73.36366 | 36300 ft | 495 kts | 104° |
| 2026-04-14 13:55 | 38.26646 | 73.40613 | 36457 ft | 492 kts | 105° |
| 2026-04-14 13:55 | 38.25851 | 73.44857 | 36454 ft | 494 kts | 104° |
| 2026-04-14 13:56 | 38.24251 | 73.53376 | 36635 ft | 495 kts | 104° |
| 2026-04-14 13:56 | 38.23453 | 73.57620 | 36772 ft | 493 kts | 104° |
| 2026-04-14 13:56 | 38.22652 | 73.61862 | 36808 ft | 494 kts | 104° |
| 2026-04-14 13:57 | 38.21049 | 73.70355 | 36903 ft | 493 kts | 104° |
| 2026-04-14 13:57 | 38.19433 | 73.78858 | 37081 ft | 495 kts | 104° |
| 2026-04-14 13:58 | 38.17799 | 73.87405 | 36801 ft | 504 kts | 104° |
| 2026-04-14 13:58 | 38.16974 | 73.91714 | 36576 ft | 512 kts | 104° |
| 2026-04-14 13:58 | 38.16126 | 73.96137 | 36310 ft | 515 kts | 104° |
| 2026-04-14 13:58 | 38.15278 | 74.00543 | 36068 ft | 510 kts | 104° |
| 2026-04-14 13:59 | 38.14440 | 74.04894 | 35786 ft | 502 kts | 104° |
| 2026-04-14 13:59 | 38.13615 | 74.09168 | 35539 ft | 495 kts | 104° |
| 2026-04-14 13:59 | 38.12797 | 74.13399 | 35284 ft | 492 kts | 104° |
| 2026-04-14 13:59 | 38.11976 | 74.17634 | 35165 ft | 493 kts | 104° |
| 2026-04-14 14:00 | 38.11432 | 74.20432 | 35141 ft | 494 kts | 104° |
| 2026-04-14 14:00 | 38.09775 | 74.28939 | 35126 ft | 499 kts | 104° |
| 2026-04-14 14:01 | 38.08097 | 74.37520 | 35128 ft | 504 kts | 104° |
| 2026-04-14 14:01 | 38.06395 | 74.46183 | 35135 ft | 508 kts | 104° |
| 2026-04-14 14:02 | 38.04675 | 74.54901 | 35131 ft | 509 kts | 104° |
| 2026-04-14 14:02 | 38.02961 | 74.63555 | 35119 ft | 502 kts | 103° |
| 2026-04-14 14:03 | 38.01260 | 74.72112 | 35184 ft | 502 kts | 104° |
| 2026-04-14 14:03 | 37.99544 | 74.80711 | 35384 ft | 504 kts | 104° |
| 2026-04-14 14:03 | 37.98681 | 74.85020 | 35491 ft | 504 kts | 104° |
| 2026-04-14 14:04 | 37.98002 | 74.89370 | 35600 ft | 503 kts | 95° |
| 2026-04-14 14:04 | 37.97790 | 74.93743 | 35711 ft | 501 kts | 87° |
| 2026-04-14 14:04 | 37.98073 | 74.98162 | 35670 ft | 499 kts | 78° |
| 2026-04-14 14:05 | 37.99195 | 75.06806 | 35666 ft | 496 kts | 77° |
| 2026-04-14 14:05 | 38.00332 | 75.15401 | 35761 ft | 499 kts | 77° |
| 2026-04-14 14:06 | 38.01424 | 75.24094 | 35793 ft | 499 kts | 78° |
| 2026-04-14 14:06 | 38.01957 | 75.28460 | 35455 ft | 503 kts | 78° |
| 2026-04-14 14:06 | 38.02486 | 75.32839 | 35178 ft | 499 kts | 78° |
| 2026-04-14 14:07 | 38.03521 | 75.41492 | 35176 ft | 493 kts | 78° |
| 2026-04-14 14:07 | 38.04551 | 75.50116 | 35239 ft | 497 kts | 78° |
| 2026-04-14 14:08 | 38.05586 | 75.58820 | 35236 ft | 500 kts | 78° |
| 2026-04-14 14:08 | 38.06619 | 75.67552 | 35227 ft | 501 kts | 78° |
| 2026-04-14 14:09 | 38.07646 | 75.76298 | 35235 ft | 501 kts | 78° |
| 2026-04-14 14:09 | 38.08657 | 75.84997 | 35220 ft | 492 kts | 78° |
| 2026-04-14 14:10 | 38.09645 | 75.93545 | 35224 ft | 486 kts | 78° |
| 2026-04-14 14:10 | 38.10621 | 76.02009 | 35213 ft | 484 kts | 78° |
| 2026-04-14 14:11 | 38.11594 | 76.10480 | 35223 ft | 487 kts | 78° |
| 2026-04-14 14:11 | 38.12566 | 76.19022 | 35223 ft | 492 kts | 78° |
| 2026-04-14 14:12 | 38.13542 | 76.27678 | 35207 ft | 497 kts | 78° |
| 2026-04-14 14:12 | 38.14518 | 76.36406 | 35192 ft | 500 kts | 78° |
| 2026-04-14 14:13 | 38.15484 | 76.45115 | 35152 ft | 493 kts | 78° |
| 2026-04-14 14:13 | 38.16428 | 76.53687 | 35124 ft | 488 kts | 78° |
| 2026-04-14 14:14 | 38.17366 | 76.62212 | 35114 ft | 486 kts | 78° |
| 2026-04-14 14:14 | 38.18296 | 76.70729 | 35087 ft | 487 kts | 78° |
| 2026-04-14 14:15 | 38.19214 | 76.79205 | 35066 ft | 487 kts | 78° |
| 2026-04-14 14:15 | 38.20132 | 76.87743 | 35056 ft | 488 kts | 78° |
| 2026-04-14 14:16 | 38.21050 | 76.96327 | 35046 ft | 490 kts | 78° |
| 2026-04-14 14:16 | 38.22398 | 77.04756 | 35024 ft | 481 kts | 62° |
| 2026-04-14 14:17 | 38.25865 | 77.11792 | 35021 ft | 462 kts | 38° |
| 2026-04-14 14:17 | 38.28183 | 77.14580 | 35042 ft | 458 kts | 35° |
| 2026-04-14 14:17 | 38.32906 | 77.20056 | 35013 ft | 460 kts | 35° |
| 2026-04-14 14:18 | 38.37579 | 77.25570 | 35011 ft | 461 kts | 36° |
| 2026-04-14 14:18 | 38.42260 | 77.31178 | 35011 ft | 462 kts | 36° |
| 2026-04-14 14:19 | 38.46939 | 77.36808 | 35006 ft | 462 kts | 36° |
| 2026-04-14 14:19 | 38.51614 | 77.42436 | 35002 ft | 461 kts | 36° |
| 2026-04-14 14:20 | 38.56098 | 77.48248 | 34995 ft | 468 kts | 47° |
| 2026-04-14 14:20 | 38.59195 | 77.55677 | 35002 ft | 483 kts | 68° |
| 2026-04-14 14:21 | 38.61000 | 77.63967 | 35003 ft | 484 kts | 70° |
| 2026-04-14 14:21 | 38.62691 | 77.72298 | 34996 ft | 484 kts | 70° |
| 2026-04-14 14:22 | 38.64423 | 77.80615 | 34993 ft | 484 kts | 70° |
| 2026-04-14 14:22 | 38.66190 | 77.88925 | 34987 ft | 484 kts | 70° |
| 2026-04-14 14:23 | 38.67968 | 77.97250 | 34985 ft | 485 kts | 70° |
| 2026-04-14 14:23 | 38.69733 | 78.05551 | 34983 ft | 487 kts | 70° |
| 2026-04-14 14:24 | 38.71508 | 78.13944 | 34985 ft | 489 kts | 70° |
| 2026-04-14 14:24 | 38.73283 | 78.22376 | 34985 ft | 491 kts | 70° |
| 2026-04-14 14:25 | 38.75060 | 78.30849 | 34977 ft | 494 kts | 70° |
| 2026-04-14 14:25 | 38.76839 | 78.39367 | 34977 ft | 495 kts | 70° |
| 2026-04-14 14:26 | 38.78606 | 78.47860 | 34977 ft | 497 kts | 70° |
| 2026-04-14 14:26 | 38.80382 | 78.56434 | 34971 ft | 498 kts | 70° |
| 2026-04-14 14:27 | 38.82152 | 78.65015 | 34963 ft | 498 kts | 70° |
| 2026-04-14 14:27 | 38.83916 | 78.73600 | 34971 ft | 497 kts | 70° |
| 2026-04-14 14:28 | 38.85672 | 78.82180 | 34964 ft | 497 kts | 70° |
| 2026-04-14 14:28 | 38.87420 | 78.90753 | 34965 ft | 496 kts | 70° |
| 2026-04-14 14:29 | 38.89159 | 78.99316 | 34964 ft | 495 kts | 70° |
| 2026-04-14 14:29 | 38.90889 | 79.07872 | 34969 ft | 495 kts | 70° |
| 2026-04-14 14:30 | 38.92614 | 79.16432 | 34969 ft | 495 kts | 70° |
| 2026-04-14 14:30 | 38.94321 | 79.24946 | 34971 ft | 496 kts | 70° |
| 2026-04-14 14:31 | 38.96036 | 79.33529 | 34974 ft | 497 kts | 70° |
| 2026-04-14 14:31 | 38.97753 | 79.42160 | 34964 ft | 498 kts | 70° |
| 2026-04-14 14:32 | 38.99463 | 79.50795 | 34968 ft | 499 kts | 71° |
| 2026-04-14 14:32 | 39.01171 | 79.59455 | 34972 ft | 501 kts | 71° |
| 2026-04-14 14:33 | 39.02880 | 79.68152 | 34975 ft | 502 kts | 71° |
| 2026-04-14 14:33 | 39.04584 | 79.76869 | 34970 ft | 503 kts | 71° |
| 2026-04-14 14:34 | 39.07137 | 79.89996 | 34966 ft | 504 kts | 71° |
| 2026-04-14 14:35 | 39.08834 | 79.98767 | 34969 ft | 505 kts | 71° |
| 2026-04-14 14:35 | 39.10524 | 80.07536 | 34968 ft | 505 kts | 71° |
| 2026-04-14 14:36 | 39.12205 | 80.16307 | 34969 ft | 504 kts | 71° |
| 2026-04-14 14:36 | 39.13867 | 80.25021 | 34968 ft | 504 kts | 71° |
| 2026-04-14 14:37 | 39.15532 | 80.33794 | 34959 ft | 503 kts | 71° |
| 2026-04-14 14:37 | 39.17189 | 80.42558 | 34968 ft | 503 kts | 71° |
| 2026-04-14 14:38 | 39.18839 | 80.51319 | 34966 ft | 503 kts | 71° |
| 2026-04-14 14:38 | 39.20482 | 80.60084 | 34972 ft | 503 kts | 72° |
| 2026-04-14 14:39 | 39.22117 | 80.68848 | 34963 ft | 503 kts | 72° |
| 2026-04-14 14:39 | 39.23748 | 80.77625 | 34971 ft | 503 kts | 72° |
| 2026-04-14 14:40 | 39.25370 | 80.86399 | 34972 ft | 503 kts | 72° |
| 2026-04-14 14:40 | 39.26987 | 80.95184 | 34973 ft | 503 kts | 72° |
| 2026-04-14 14:41 | 39.28588 | 81.03916 | 34976 ft | 503 kts | 72° |
| 2026-04-14 14:41 | 39.30193 | 81.12719 | 34976 ft | 503 kts | 72° |
| 2026-04-14 14:42 | 39.31791 | 81.21516 | 34974 ft | 503 kts | 72° |
| 2026-04-14 14:42 | 39.33380 | 81.30309 | 34972 ft | 503 kts | 72° |
| 2026-04-14 14:43 | 39.34964 | 81.39117 | 34973 ft | 503 kts | 73° |
| 2026-04-14 14:43 | 39.36540 | 81.47918 | 34974 ft | 502 kts | 73° |
| 2026-04-14 14:44 | 39.38106 | 81.56704 | 34972 ft | 501 kts | 73° |
| 2026-04-14 14:44 | 39.39662 | 81.65478 | 34976 ft | 500 kts | 73° |
| 2026-04-14 14:45 | 39.41199 | 81.74179 | 34971 ft | 499 kts | 73° |
| 2026-04-14 14:45 | 39.42735 | 81.82921 | 34977 ft | 498 kts | 73° |
| 2026-04-14 14:46 | 39.44263 | 81.91654 | 34982 ft | 497 kts | 73° |
| 2026-04-14 14:46 | 39.45781 | 82.00370 | 34983 ft | 496 kts | 73° |
| 2026-04-14 14:47 | 39.47036 | 82.07614 | 34983 ft | 496 kts | 73° |
| 2026-04-14 14:47 | 39.48541 | 82.16332 | 34987 ft | 496 kts | 74° |
| 2026-04-14 14:48 | 39.50040 | 82.25056 | 34989 ft | 496 kts | 74° |
| 2026-04-14 14:48 | 39.51532 | 82.33783 | 34992 ft | 496 kts | 74° |
| 2026-04-14 14:49 | 39.53008 | 82.42459 | 34989 ft | 497 kts | 74° |
| 2026-04-14 14:49 | 39.54491 | 82.51212 | 34994 ft | 497 kts | 74° |
| 2026-04-14 14:50 | 39.55966 | 82.59973 | 34993 ft | 497 kts | 74° |
| 2026-04-14 14:50 | 39.57433 | 82.68729 | 34994 ft | 498 kts | 75° |
| 2026-04-14 14:51 | 39.58897 | 82.77509 | 34993 ft | 498 kts | 75° |
| 2026-04-14 14:51 | 39.60351 | 82.86277 | 34995 ft | 498 kts | 75° |
| 2026-04-14 14:52 | 39.61790 | 82.94991 | 34992 ft | 497 kts | 75° |
| 2026-04-14 14:52 | 39.63229 | 83.03752 | 34991 ft | 496 kts | 75° |
| 2026-04-14 14:53 | 39.64659 | 83.12504 | 34994 ft | 495 kts | 75° |
| 2026-04-14 14:53 | 39.66080 | 83.21238 | 34988 ft | 494 kts | 75° |
| 2026-04-14 14:54 | 39.67489 | 83.29948 | 34993 ft | 492 kts | 75° |
| 2026-04-14 14:54 | 39.68888 | 83.38638 | 34989 ft | 491 kts | 75° |
| 2026-04-14 14:55 | 39.70278 | 83.47316 | 34987 ft | 490 kts | 76° |
| 2026-04-14 14:55 | 39.71658 | 83.55971 | 34987 ft | 489 kts | 76° |
| 2026-04-14 14:56 | 39.73712 | 83.68939 | 34983 ft | 488 kts | 76° |
| 2026-04-14 14:56 | 39.75071 | 83.77574 | 34990 ft | 488 kts | 76° |
| 2026-04-14 14:57 | 39.76425 | 83.86222 | 34986 ft | 488 kts | 76° |
| 2026-04-14 14:57 | 39.77764 | 83.94817 | 34986 ft | 488 kts | 76° |
| 2026-04-14 14:58 | 39.79107 | 84.03480 | 34994 ft | 488 kts | 76° |
| 2026-04-14 14:58 | 39.80442 | 84.12142 | 34986 ft | 489 kts | 76° |
| 2026-04-14 14:59 | 39.81770 | 84.20800 | 34989 ft | 489 kts | 76° |
| 2026-04-14 14:59 | 39.83095 | 84.29481 | 34983 ft | 488 kts | 77° |
| 2026-04-14 15:00 | 39.84410 | 84.38148 | 34981 ft | 488 kts | 77° |
| 2026-04-14 15:00 | 39.85717 | 84.46805 | 34989 ft | 487 kts | 77° |
| 2026-04-14 15:01 | 39.87015 | 84.55451 | 34992 ft | 486 kts | 77° |
| 2026-04-14 15:01 | 39.88305 | 84.64088 | 34985 ft | 485 kts | 77° |
| 2026-04-14 15:02 | 39.89586 | 84.72712 | 34983 ft | 484 kts | 77° |
| 2026-04-14 15:02 | 39.90858 | 84.81319 | 34984 ft | 483 kts | 77° |
| 2026-04-14 15:03 | 39.92120 | 84.89904 | 34986 ft | 482 kts | 77° |
| 2026-04-14 15:03 | 39.93367 | 84.98436 | 34984 ft | 481 kts | 78° |
| 2026-04-14 15:04 | 39.94612 | 85.07002 | 34984 ft | 480 kts | 78° |
| 2026-04-14 15:04 | 39.95848 | 85.15545 | 34984 ft | 480 kts | 78° |
| 2026-04-14 15:05 | 39.97076 | 85.24084 | 34989 ft | 479 kts | 78° |
| 2026-04-14 15:05 | 39.98298 | 85.32623 | 34981 ft | 479 kts | 78° |
| 2026-04-14 15:06 | 39.99514 | 85.41174 | 34992 ft | 479 kts | 78° |
| 2026-04-14 15:06 | 40.00724 | 85.49724 | 34991 ft | 479 kts | 78° |
| 2026-04-14 15:07 | 40.01926 | 85.58271 | 34977 ft | 479 kts | 78° |
| 2026-04-14 15:07 | 40.03122 | 85.66819 | 34987 ft | 479 kts | 78° |
| 2026-04-14 15:08 | 40.04311 | 85.75370 | 34984 ft | 479 kts | 78° |
| 2026-04-14 15:08 | 40.05496 | 85.83934 | 34987 ft | 479 kts | 78° |
| 2026-04-14 15:09 | 40.06674 | 85.92488 | 34990 ft | 479 kts | 79° |
| 2026-04-14 15:09 | 40.07426 | 86.01061 | 34982 ft | 479 kts | 91° |
| 2026-04-14 15:10 | 40.06547 | 86.09665 | 34986 ft | 478 kts | 101° |
| 2026-04-14 15:10 | 40.05307 | 86.18194 | 34982 ft | 478 kts | 101° |
| 2026-04-14 15:11 | 40.04087 | 86.26739 | 34978 ft | 478 kts | 101° |
| 2026-04-14 15:11 | 40.02904 | 86.35281 | 34985 ft | 478 kts | 101° |
| 2026-04-14 15:12 | 40.01730 | 86.43832 | 34986 ft | 479 kts | 101° |
| 2026-04-14 15:12 | 40.00551 | 86.52381 | 34979 ft | 479 kts | 101° |
| 2026-04-14 15:13 | 39.99362 | 86.60932 | 34979 ft | 479 kts | 101° |
| 2026-04-14 15:13 | 39.98165 | 86.69492 | 34980 ft | 480 kts | 101° |
| 2026-04-14 15:14 | 39.96961 | 86.78049 | 34983 ft | 480 kts | 101° |
| 2026-04-14 15:14 | 39.95759 | 86.86547 | 34978 ft | 480 kts | 101° |
| 2026-04-14 15:15 | 39.94541 | 86.95104 | 34984 ft | 480 kts | 101° |
| 2026-04-14 15:15 | 39.93317 | 87.03662 | 34980 ft | 480 kts | 101° |
| 2026-04-14 15:16 | 39.92087 | 87.12214 | 34975 ft | 480 kts | 101° |
| 2026-04-14 15:16 | 39.90850 | 87.20769 | 34975 ft | 480 kts | 102° |
| 2026-04-14 15:17 | 39.89605 | 87.29332 | 34971 ft | 481 kts | 102° |
| 2026-04-14 15:17 | 39.88365 | 87.37821 | 34973 ft | 481 kts | 102° |
| 2026-04-14 15:18 | 39.87107 | 87.46380 | 34970 ft | 481 kts | 102° |
| 2026-04-14 15:18 | 39.85844 | 87.54927 | 34968 ft | 481 kts | 102° |
| 2026-04-14 15:19 | 39.84576 | 87.63465 | 34974 ft | 480 kts | 102° |
| 2026-04-14 15:19 | 39.83304 | 87.71987 | 34969 ft | 480 kts | 102° |
| 2026-04-14 15:20 | 39.82026 | 87.80503 | 34966 ft | 479 kts | 102° |
| 2026-04-14 15:20 | 39.80744 | 87.89010 | 34968 ft | 479 kts | 102° |
| 2026-04-14 15:21 | 39.79456 | 87.97498 | 34970 ft | 478 kts | 102° |
| 2026-04-14 15:21 | 39.78160 | 88.05984 | 34967 ft | 478 kts | 102° |
| 2026-04-14 15:22 | 39.76870 | 88.14398 | 34967 ft | 477 kts | 102° |
| 2026-04-14 15:22 | 39.75565 | 88.22867 | 34967 ft | 477 kts | 103° |
| 2026-04-14 15:23 | 39.74255 | 88.31328 | 34969 ft | 477 kts | 103° |
| 2026-04-14 15:23 | 39.72939 | 88.39787 | 34970 ft | 478 kts | 103° |
| 2026-04-14 15:24 | 39.71616 | 88.48251 | 34968 ft | 478 kts | 103° |
| 2026-04-14 15:24 | 39.70285 | 88.56715 | 34969 ft | 479 kts | 103° |
| 2026-04-14 15:25 | 39.68948 | 88.65184 | 34969 ft | 479 kts | 103° |
| 2026-04-14 15:25 | 39.67602 | 88.73664 | 34967 ft | 479 kts | 103° |
| 2026-04-14 15:26 | 39.66250 | 88.82139 | 34969 ft | 479 kts | 103° |
| 2026-04-14 15:26 | 39.64901 | 88.90552 | 34970 ft | 479 kts | 103° |
| 2026-04-14 15:27 | 39.63537 | 88.99021 | 34974 ft | 479 kts | 103° |
| 2026-04-14 15:27 | 39.62167 | 89.07484 | 34978 ft | 479 kts | 103° |
| 2026-04-14 15:28 | 39.60791 | 89.15944 | 34978 ft | 479 kts | 103° |
| 2026-04-14 15:28 | 39.59410 | 89.24388 | 34976 ft | 479 kts | 104° |
| 2026-04-14 15:29 | 39.58023 | 89.32834 | 34978 ft | 479 kts | 104° |
| 2026-04-14 15:29 | 39.56631 | 89.41269 | 34982 ft | 479 kts | 104° |
| 2026-04-14 15:30 | 39.55232 | 89.49703 | 34987 ft | 479 kts | 104° |
| 2026-04-14 15:30 | 39.53827 | 89.58135 | 34991 ft | 479 kts | 104° |
| 2026-04-14 15:31 | 39.52417 | 89.66560 | 34996 ft | 479 kts | 104° |
| 2026-04-14 15:31 | 39.50999 | 89.74988 | 35000 ft | 479 kts | 104° |
| 2026-04-14 15:32 | 39.49586 | 89.83347 | 35007 ft | 479 kts | 104° |
| 2026-04-14 15:32 | 39.48155 | 89.91777 | 35012 ft | 479 kts | 104° |
| 2026-04-14 15:33 | 39.46718 | 90.00200 | 35020 ft | 480 kts | 104° |
| 2026-04-14 15:33 | 39.45273 | 90.08634 | 35033 ft | 480 kts | 105° |
| 2026-04-14 15:34 | 39.43819 | 90.17079 | 35046 ft | 481 kts | 105° |
| 2026-04-14 15:34 | 39.42606 | 90.24094 | 35046 ft | 481 kts | 105° |
| 2026-04-14 15:35 | 39.41138 | 90.32551 | 35057 ft | 482 kts | 105° |
| 2026-04-14 15:35 | 39.39422 | 90.42385 | 35066 ft | 482 kts | 105° |
| 2026-04-14 15:36 | 39.38179 | 90.49477 | 35076 ft | 482 kts | 105° |
| 2026-04-14 15:36 | 39.36692 | 90.57927 | 35082 ft | 482 kts | 105° |
| 2026-04-14 15:37 | 39.35206 | 90.66330 | 35088 ft | 483 kts | 105° |
| 2026-04-14 15:37 | 39.33704 | 90.74788 | 35086 ft | 483 kts | 105° |
| 2026-04-14 15:38 | 39.32194 | 90.83253 | 35091 ft | 484 kts | 105° |
| 2026-04-14 15:38 | 39.30676 | 90.91726 | 35094 ft | 484 kts | 105° |
| 2026-04-14 15:39 | 39.29150 | 91.00200 | 35092 ft | 485 kts | 105° |
| 2026-04-14 15:39 | 39.27618 | 91.08674 | 35098 ft | 485 kts | 105° |
| 2026-04-14 15:40 | 39.26078 | 91.17155 | 35097 ft | 486 kts | 105° |
| 2026-04-14 15:40 | 39.24530 | 91.25642 | 35100 ft | 486 kts | 105° |
| 2026-04-14 15:41 | 39.22976 | 91.34128 | 35105 ft | 486 kts | 105° |
| 2026-04-14 15:41 | 39.21417 | 91.42605 | 35103 ft | 485 kts | 105° |
| 2026-04-14 15:42 | 39.20061 | 91.51083 | 35114 ft | 486 kts | 102° |
| 2026-04-14 15:42 | 39.18853 | 91.59720 | 35120 ft | 486 kts | 102° |
| 2026-04-14 15:43 | 39.17636 | 91.68230 | 35108 ft | 486 kts | 103° |
| 2026-04-14 15:43 | 39.16372 | 91.76785 | 35116 ft | 486 kts | 103° |
| 2026-04-14 15:44 | 39.15090 | 91.85330 | 35114 ft | 486 kts | 103° |
| 2026-04-14 15:44 | 39.13805 | 91.93870 | 35121 ft | 485 kts | 103° |
| 2026-04-14 15:45 | 39.12514 | 92.02406 | 35109 ft | 485 kts | 103° |
| 2026-04-14 15:45 | 39.11219 | 92.10939 | 35121 ft | 485 kts | 103° |
| 2026-04-14 15:46 | 39.09919 | 92.19459 | 35116 ft | 485 kts | 103° |
| 2026-04-14 15:46 | 39.08747 | 92.27958 | 35109 ft | 487 kts | 96° |
| 2026-04-14 15:47 | 39.09086 | 92.36647 | 35113 ft | 488 kts | 80° |
| 2026-04-14 15:47 | 39.10361 | 92.45236 | 35107 ft | 489 kts | 79° |
| 2026-04-14 15:48 | 39.11663 | 92.53828 | 35116 ft | 489 kts | 79° |
| 2026-04-14 15:48 | 39.12913 | 92.62443 | 35126 ft | 489 kts | 80° |
| 2026-04-14 15:49 | 39.14128 | 92.71077 | 35122 ft | 490 kts | 80° |
| 2026-04-14 15:49 | 39.15331 | 92.79729 | 35128 ft | 491 kts | 80° |
| 2026-04-14 15:50 | 39.16531 | 92.88393 | 35131 ft | 491 kts | 80° |
| 2026-04-14 15:50 | 39.17726 | 92.97064 | 35124 ft | 491 kts | 80° |
| 2026-04-14 15:51 | 39.18914 | 93.05724 | 35138 ft | 491 kts | 80° |
| 2026-04-14 15:51 | 39.20097 | 93.14395 | 35128 ft | 491 kts | 80° |
| 2026-04-14 15:52 | 39.21273 | 93.23068 | 35136 ft | 490 kts | 80° |
| 2026-04-14 15:52 | 39.22440 | 93.31722 | 35135 ft | 489 kts | 81° |
| 2026-04-14 15:53 | 39.23598 | 93.40364 | 35140 ft | 488 kts | 81° |
| 2026-04-14 15:53 | 39.24748 | 93.48992 | 35147 ft | 488 kts | 81° |
| 2026-04-14 15:54 | 39.26455 | 93.61897 | 35140 ft | 489 kts | 81° |
| 2026-04-14 15:55 | 39.27589 | 93.70537 | 35142 ft | 488 kts | 81° |
| 2026-04-14 15:55 | 39.28716 | 93.79171 | 35119 ft | 488 kts | 81° |
| 2026-04-14 15:56 | 39.29839 | 93.87821 | 35134 ft | 488 kts | 81° |
| 2026-04-14 15:56 | 39.30954 | 93.96470 | 35118 ft | 490 kts | 81° |
| 2026-04-14 15:57 | 39.32066 | 94.05154 | 35104 ft | 490 kts | 81° |
| 2026-04-14 15:57 | 39.33173 | 94.13843 | 35120 ft | 491 kts | 81° |
| 2026-04-14 15:58 | 39.34276 | 94.22556 | 35109 ft | 492 kts | 81° |
| 2026-04-14 15:58 | 39.35375 | 94.31286 | 35092 ft | 492 kts | 81° |
| 2026-04-14 15:59 | 39.36461 | 94.39973 | 35110 ft | 493 kts | 81° |
| 2026-04-14 15:59 | 39.37549 | 94.48733 | 35102 ft | 493 kts | 81° |
| 2026-04-14 16:00 | 39.38631 | 94.57495 | 35097 ft | 493 kts | 81° |
| 2026-04-14 16:00 | 39.39704 | 94.66244 | 35114 ft | 492 kts | 81° |
| 2026-04-14 16:01 | 39.40771 | 94.75000 | 35121 ft | 492 kts | 81° |
| 2026-04-14 16:01 | 39.41830 | 94.83744 | 35127 ft | 492 kts | 81° |
| 2026-04-14 16:02 | 39.42883 | 94.92497 | 35131 ft | 492 kts | 82° |
| 2026-04-14 16:02 | 39.43929 | 95.01241 | 35144 ft | 492 kts | 82° |
| 2026-04-14 16:03 | 39.44968 | 95.09998 | 35129 ft | 492 kts | 82° |
| 2026-04-14 16:03 | 39.45994 | 95.18690 | 35141 ft | 492 kts | 82° |
| 2026-04-14 16:04 | 39.47020 | 95.27449 | 35140 ft | 492 kts | 82° |
| 2026-04-14 16:04 | 39.48040 | 95.36209 | 35142 ft | 492 kts | 82° |
| 2026-04-14 16:05 | 39.49052 | 95.44970 | 35145 ft | 492 kts | 82° |
| 2026-04-14 16:05 | 39.50057 | 95.53722 | 35144 ft | 492 kts | 82° |
| 2026-04-14 16:06 | 39.51056 | 95.62477 | 35149 ft | 492 kts | 82° |
| 2026-04-14 16:06 | 39.52048 | 95.71240 | 35148 ft | 491 kts | 82° |
| 2026-04-14 16:07 | 39.53035 | 95.80012 | 35129 ft | 492 kts | 82° |
| 2026-04-14 16:07 | 39.54013 | 95.88771 | 35133 ft | 491 kts | 82° |
| 2026-04-14 16:08 | 39.54978 | 95.97466 | 35126 ft | 491 kts | 82° |
| 2026-04-14 16:08 | 39.55944 | 96.06228 | 35122 ft | 491 kts | 82° |
| 2026-04-14 16:09 | 39.56948 | 96.14988 | 35132 ft | 491 kts | 81° |
| 2026-04-14 16:09 | 39.58107 | 96.23726 | 35130 ft | 493 kts | 80° |
| 2026-04-14 16:10 | 39.59277 | 96.32486 | 35130 ft | 494 kts | 81° |
| 2026-04-14 16:10 | 39.60418 | 96.41272 | 35127 ft | 494 kts | 81° |
| 2026-04-14 16:11 | 39.61542 | 96.50054 | 35129 ft | 494 kts | 81° |
| 2026-04-14 16:11 | 39.62663 | 96.58849 | 35115 ft | 494 kts | 81° |
| 2026-04-14 16:12 | 39.63803 | 96.67658 | 35107 ft | 495 kts | 80° |
| 2026-04-14 16:12 | 39.64991 | 96.76389 | 35101 ft | 495 kts | 80° |
| 2026-04-14 16:13 | 39.66187 | 96.85194 | 35087 ft | 496 kts | 80° |
| 2026-04-14 16:13 | 39.67366 | 96.94015 | 35097 ft | 495 kts | 81° |
| 2026-04-14 16:14 | 39.68538 | 97.02844 | 35091 ft | 496 kts | 81° |
| 2026-04-14 16:14 | 39.69703 | 97.11690 | 35092 ft | 497 kts | 81° |
| 2026-04-14 16:15 | 39.70857 | 97.20490 | 35066 ft | 497 kts | 81° |
| 2026-04-14 16:15 | 39.72012 | 97.29349 | 35081 ft | 498 kts | 81° |
| 2026-04-14 16:16 | 39.73214 | 97.38208 | 35062 ft | 498 kts | 80° |
| 2026-04-14 16:16 | 39.74428 | 97.47073 | 35042 ft | 498 kts | 80° |
| 2026-04-14 16:17 | 39.75178 | 97.55990 | 35041 ft | 496 kts | 93° |
| 2026-04-14 16:17 | 39.74325 | 97.64818 | 35040 ft | 492 kts | 102° |
| 2026-04-14 16:18 | 39.73219 | 97.73597 | 35025 ft | 493 kts | 102° |
| 2026-04-14 16:18 | 39.72139 | 97.82384 | 35024 ft | 493 kts | 102° |
| 2026-04-14 16:19 | 39.71518 | 97.91256 | 35013 ft | 497 kts | 88° |
| 2026-04-14 16:19 | 39.72009 | 98.00208 | 35014 ft | 498 kts | 86° |
| 2026-04-14 16:20 | 39.72556 | 98.09144 | 35000 ft | 500 kts | 86° |
| 2026-04-14 16:20 | 39.73056 | 98.18163 | 34995 ft | 501 kts | 87° |
| 2026-04-14 16:21 | 39.73512 | 98.27197 | 34979 ft | 502 kts | 87° |
| 2026-04-14 16:21 | 39.73953 | 98.36268 | 34977 ft | 503 kts | 87° |
| 2026-04-14 16:22 | 39.74388 | 98.45370 | 34974 ft | 505 kts | 87° |
| 2026-04-14 16:22 | 39.74749 | 98.52995 | 34969 ft | 505 kts | 88° |
| 2026-04-14 16:23 | 39.75175 | 98.62111 | 34963 ft | 506 kts | 88° |
| 2026-04-14 16:23 | 39.75592 | 98.71176 | 34959 ft | 506 kts | 88° |
| 2026-04-14 16:24 | 39.76005 | 98.80306 | 34953 ft | 506 kts | 88° |
| 2026-04-14 16:24 | 39.76410 | 98.89430 | 34954 ft | 505 kts | 88° |
| 2026-04-14 16:25 | 39.76808 | 98.98538 | 34950 ft | 505 kts | 88° |
| 2026-04-14 16:25 | 39.77198 | 99.07653 | 34949 ft | 504 kts | 88° |
| 2026-04-14 16:26 | 39.77581 | 99.16757 | 34948 ft | 504 kts | 88° |
| 2026-04-14 16:26 | 39.77956 | 99.25837 | 34949 ft | 503 kts | 88° |
| 2026-04-14 16:27 | 39.78324 | 99.34930 | 34948 ft | 503 kts | 88° |
| 2026-04-14 16:27 | 39.78684 | 99.44022 | 34938 ft | 503 kts | 88° |
| 2026-04-14 16:28 | 39.79038 | 99.53115 | 34948 ft | 503 kts | 88° |
| 2026-04-14 16:28 | 39.79385 | 99.62204 | 34947 ft | 504 kts | 88° |
| 2026-04-14 16:29 | 39.79724 | 99.71303 | 34932 ft | 504 kts | 88° |
| 2026-04-14 16:29 | 39.80055 | 99.80335 | 34940 ft | 503 kts | 88° |
| 2026-04-14 16:30 | 39.80382 | 99.89485 | 34939 ft | 503 kts | 88° |
| 2026-04-14 16:30 | 39.80699 | 99.98557 | 34945 ft | 503 kts | 88° |
| 2026-04-14 16:31 | 39.81009 | 100.07601 | 34943 ft | 503 kts | 88° |
| 2026-04-14 16:31 | 39.81313 | 100.16696 | 34939 ft | 504 kts | 88° |
| 2026-04-14 16:32 | 39.81610 | 100.25812 | 34937 ft | 504 kts | 88° |
| 2026-04-14 16:32 | 39.81900 | 100.34920 | 34936 ft | 504 kts | 88° |
| 2026-04-14 16:33 | 39.82183 | 100.44039 | 34940 ft | 504 kts | 88° |
| 2026-04-14 16:33 | 39.82459 | 100.53148 | 34933 ft | 504 kts | 88° |
| 2026-04-14 16:34 | 39.82729 | 100.62274 | 34937 ft | 504 kts | 88° |
| 2026-04-14 16:34 | 39.82990 | 100.71389 | 34937 ft | 505 kts | 88° |
| 2026-04-14 16:35 | 39.83245 | 100.80527 | 34931 ft | 505 kts | 88° |
| 2026-04-14 16:35 | 39.83494 | 100.89668 | 34934 ft | 505 kts | 88° |
| 2026-04-14 16:36 | 39.83734 | 100.98795 | 34933 ft | 505 kts | 88° |
| 2026-04-14 16:36 | 39.83967 | 101.07880 | 34937 ft | 505 kts | 88° |
| 2026-04-14 16:37 | 39.84193 | 101.17012 | 34930 ft | 506 kts | 88° |
| 2026-04-14 16:37 | 39.84412 | 101.26154 | 34934 ft | 506 kts | 88° |
| 2026-04-14 16:38 | 39.84625 | 101.35311 | 34933 ft | 506 kts | 88° |
| 2026-04-14 16:38 | 39.84830 | 101.44453 | 34929 ft | 506 kts | 88° |
| 2026-04-14 16:39 | 39.85026 | 101.53606 | 34938 ft | 505 kts | 88° |
| 2026-04-14 16:39 | 39.85217 | 101.62743 | 34942 ft | 505 kts | 88° |
| 2026-04-14 16:40 | 39.85354 | 101.69475 | 34944 ft | 505 kts | 88° |
| 2026-04-14 16:40 | 39.85531 | 101.78555 | 34941 ft | 505 kts | 88° |
| 2026-04-14 16:41 | 39.85702 | 101.87686 | 34942 ft | 504 kts | 89° |
| 2026-04-14 16:41 | 39.85865 | 101.96797 | 34937 ft | 504 kts | 89° |
| 2026-04-14 16:42 | 39.86022 | 102.05948 | 34946 ft | 504 kts | 89° |
| 2026-04-14 16:42 | 39.86171 | 102.15058 | 34950 ft | 504 kts | 89° |
| 2026-04-14 16:43 | 39.86313 | 102.24168 | 34949 ft | 504 kts | 89° |
| 2026-04-14 16:43 | 39.86448 | 102.33289 | 34955 ft | 503 kts | 89° |
| 2026-04-14 16:44 | 39.86575 | 102.42380 | 34964 ft | 503 kts | 89° |
| 2026-04-14 16:44 | 39.86695 | 102.51484 | 34966 ft | 503 kts | 89° |
| 2026-04-14 16:45 | 39.86862 | 102.65096 | 34966 ft | 503 kts | 89° |
| 2026-04-14 16:45 | 39.86964 | 102.74147 | 34969 ft | 503 kts | 89° |
| 2026-04-14 16:46 | 39.87060 | 102.83255 | 34962 ft | 503 kts | 89° |
| 2026-04-14 16:46 | 39.87147 | 102.92191 | 34956 ft | 503 kts | 89° |
| 2026-04-14 16:47 | 39.87229 | 103.01403 | 34959 ft | 503 kts | 90° |
| 2026-04-14 16:47 | 39.87304 | 103.10535 | 34957 ft | 503 kts | 90° |
| 2026-04-14 16:48 | 39.87370 | 103.19562 | 34961 ft | 503 kts | 90° |
| 2026-04-14 16:48 | 39.87430 | 103.28538 | 34957 ft | 503 kts | 90° |
| 2026-04-14 16:49 | 39.87482 | 103.37455 | 34957 ft | 503 kts | 90° |
| 2026-04-14 16:49 | 39.87528 | 103.46566 | 34954 ft | 503 kts | 90° |
| 2026-04-14 16:50 | 39.87568 | 103.55694 | 34958 ft | 503 kts | 90° |
| 2026-04-14 16:50 | 39.87600 | 103.64798 | 34962 ft | 503 kts | 90° |
| 2026-04-14 16:51 | 39.87624 | 103.73900 | 34952 ft | 504 kts | 90° |
| 2026-04-14 16:51 | 39.87641 | 103.83019 | 34961 ft | 503 kts | 90° |
| 2026-04-14 16:52 | 39.87651 | 103.91259 | 34970 ft | 503 kts | 90° |
| 2026-04-14 16:52 | 39.87655 | 104.00406 | 34967 ft | 503 kts | 91° |
| 2026-04-14 16:53 | 39.87652 | 104.09531 | 34972 ft | 503 kts | 91° |
| 2026-04-14 16:53 | 39.87641 | 104.18650 | 34971 ft | 504 kts | 91° |
| 2026-04-14 16:54 | 39.87624 | 104.27754 | 34970 ft | 504 kts | 91° |
| 2026-04-14 16:54 | 39.87599 | 104.36878 | 34975 ft | 504 kts | 91° |
| 2026-04-14 16:55 | 39.87568 | 104.46011 | 34976 ft | 504 kts | 91° |
| 2026-04-14 16:55 | 39.87529 | 104.55127 | 34978 ft | 504 kts | 91° |
| 2026-04-14 16:56 | 39.87484 | 104.64061 | 34979 ft | 504 kts | 91° |
| 2026-04-14 16:56 | 39.87432 | 104.73000 | 34981 ft | 504 kts | 91° |
| 2026-04-14 16:57 | 39.87372 | 104.82115 | 34980 ft | 504 kts | 91° |
| 2026-04-14 16:57 | 39.87305 | 104.91236 | 34976 ft | 504 kts | 91° |
| 2026-04-14 16:58 | 39.87231 | 105.00346 | 34979 ft | 503 kts | 92° |
| 2026-04-14 16:58 | 39.87149 | 105.09446 | 34980 ft | 503 kts | 92° |
| 2026-04-14 16:59 | 39.87061 | 105.18571 | 34974 ft | 503 kts | 92° |
| 2026-04-14 16:59 | 39.86965 | 105.27670 | 34980 ft | 503 kts | 92° |
| 2026-04-14 17:00 | 39.86861 | 105.36777 | 34976 ft | 503 kts | 92° |
| 2026-04-14 17:00 | 39.86751 | 105.45904 | 34988 ft | 505 kts | 92° |
| 2026-04-14 17:01 | 39.86633 | 105.55058 | 34975 ft | 507 kts | 90° |
| 2026-04-14 17:01 | 39.86508 | 105.64265 | 34984 ft | 510 kts | 90° |
| 2026-04-14 17:02 | 39.86376 | 105.73450 | 34987 ft | 512 kts | 90° |
| 2026-04-14 17:02 | 39.86234 | 105.82787 | 34991 ft | 513 kts | 90° |
| 2026-04-14 17:03 | 39.86085 | 105.92082 | 34983 ft | 514 kts | 90° |
| 2026-04-14 17:03 | 39.85930 | 106.01312 | 34980 ft | 513 kts | 91° |
| 2026-04-14 17:04 | 39.85767 | 106.10578 | 34981 ft | 511 kts | 91° |
| 2026-04-14 17:04 | 39.85597 | 106.19808 | 34979 ft | 509 kts | 91° |
| 2026-04-14 17:05 | 39.85420 | 106.29008 | 34981 ft | 507 kts | 91° |
| 2026-04-14 17:05 | 39.85237 | 106.38152 | 34983 ft | 505 kts | 91° |
| 2026-04-14 17:06 | 39.85048 | 106.47281 | 34981 ft | 503 kts | 91° |
| 2026-04-14 17:06 | 39.84852 | 106.56372 | 34982 ft | 502 kts | 91° |
| 2026-04-14 17:07 | 39.84649 | 106.65439 | 34981 ft | 501 kts | 91° |
| 2026-04-14 17:07 | 39.84441 | 106.74445 | 34983 ft | 500 kts | 91° |
| 2026-04-14 17:08 | 39.84225 | 106.83494 | 34994 ft | 501 kts | 91° |
| 2026-04-14 17:08 | 39.84001 | 106.92573 | 35001 ft | 502 kts | 91° |
| 2026-04-14 17:09 | 39.83809 | 107.00129 | 34990 ft | 503 kts | 91° |
| 2026-04-14 17:09 | 39.83572 | 107.09225 | 34998 ft | 504 kts | 91° |
| 2026-04-14 17:10 | 39.83326 | 107.18350 | 35000 ft | 504 kts | 91° |
| 2026-04-14 17:10 | 39.83074 | 107.27467 | 35006 ft | 505 kts | 91° |
| 2026-04-14 17:11 | 39.82814 | 107.36604 | 35007 ft | 505 kts | 91° |
| 2026-04-14 17:11 | 39.82547 | 107.45729 | 35011 ft | 505 kts | 91° |
| 2026-04-14 17:12 | 39.82273 | 107.54872 | 35011 ft | 505 kts | 91° |
| 2026-04-14 17:12 | 39.81993 | 107.63953 | 35010 ft | 505 kts | 91° |
| 2026-04-14 17:13 | 39.81703 | 107.73131 | 35017 ft | 504 kts | 91° |
| 2026-04-14 17:13 | 39.81410 | 107.82179 | 35011 ft | 504 kts | 91° |
| 2026-04-14 17:14 | 39.81106 | 107.91335 | 35011 ft | 503 kts | 91° |
| 2026-04-14 17:14 | 39.80799 | 108.00373 | 35011 ft | 503 kts | 91° |
| 2026-04-14 17:15 | 39.80484 | 108.09441 | 35021 ft | 502 kts | 91° |
| 2026-04-14 17:15 | 39.80162 | 108.18514 | 35017 ft | 501 kts | 92° |
| 2026-04-14 17:16 | 39.79834 | 108.27559 | 35025 ft | 501 kts | 92° |
| 2026-04-14 17:16 | 39.79498 | 108.36608 | 35022 ft | 500 kts | 92° |
| 2026-04-14 17:17 | 39.79156 | 108.45633 | 35022 ft | 500 kts | 92° |
| 2026-04-14 17:17 | 39.78808 | 108.54648 | 35026 ft | 499 kts | 92° |
| 2026-04-14 17:18 | 39.78455 | 108.63616 | 35023 ft | 499 kts | 92° |
| 2026-04-14 17:18 | 39.78093 | 108.72627 | 35020 ft | 499 kts | 92° |
| 2026-04-14 17:19 | 39.77723 | 108.81650 | 35025 ft | 499 kts | 92° |
| 2026-04-14 17:19 | 39.77347 | 108.90656 | 35021 ft | 499 kts | 92° |
| 2026-04-14 17:20 | 39.76963 | 108.99683 | 35024 ft | 499 kts | 92° |
| 2026-04-14 17:20 | 39.76574 | 109.08685 | 35023 ft | 499 kts | 92° |
| 2026-04-14 17:21 | 39.76177 | 109.17693 | 35024 ft | 499 kts | 92° |
| 2026-04-14 17:21 | 39.75772 | 109.26709 | 35026 ft | 499 kts | 92° |
| 2026-04-14 17:22 | 39.75361 | 109.35710 | 35025 ft | 499 kts | 93° |
| 2026-04-14 17:22 | 39.74944 | 109.44703 | 35027 ft | 499 kts | 93° |
| 2026-04-14 17:23 | 39.74522 | 109.53644 | 35028 ft | 499 kts | 93° |
| 2026-04-14 17:23 | 39.74089 | 109.62669 | 35026 ft | 499 kts | 93° |
| 2026-04-14 17:24 | 39.73651 | 109.71658 | 35025 ft | 499 kts | 93° |
| 2026-04-14 17:24 | 39.73206 | 109.80650 | 35036 ft | 499 kts | 93° |
| 2026-04-14 17:25 | 39.72754 | 109.89636 | 35026 ft | 499 kts | 93° |
| 2026-04-14 17:25 | 39.72294 | 109.98636 | 35027 ft | 499 kts | 93° |
| 2026-04-14 17:26 | 39.71829 | 110.07616 | 35029 ft | 499 kts | 93° |
| 2026-04-14 17:26 | 39.71356 | 110.16596 | 35022 ft | 499 kts | 94° |
| 2026-04-14 17:27 | 39.70877 | 110.25570 | 35031 ft | 498 kts | 94° |
| 2026-04-14 17:27 | 39.70390 | 110.34560 | 35021 ft | 498 kts | 94° |
| 2026-04-14 17:28 | 39.69897 | 110.43526 | 35032 ft | 498 kts | 94° |
| 2026-04-14 17:28 | 39.69400 | 110.52447 | 35026 ft | 498 kts | 94° |
| 2026-04-14 17:29 | 39.68893 | 110.61411 | 35034 ft | 498 kts | 94° |
| 2026-04-14 17:29 | 39.68376 | 110.70436 | 35026 ft | 498 kts | 94° |
| 2026-04-14 17:30 | 39.67858 | 110.79352 | 35036 ft | 498 kts | 94° |
| 2026-04-14 17:30 | 39.67331 | 110.88306 | 35033 ft | 498 kts | 94° |
| 2026-04-14 17:31 | 39.66797 | 110.97273 | 35038 ft | 498 kts | 94° |
| 2026-04-14 17:31 | 39.66255 | 111.06233 | 35043 ft | 497 kts | 94° |
| 2026-04-14 17:32 | 39.65708 | 111.15182 | 35043 ft | 497 kts | 95° |
| 2026-04-14 17:32 | 39.65157 | 111.24073 | 35056 ft | 497 kts | 95° |
| 2026-04-14 17:33 | 39.64596 | 111.33021 | 35061 ft | 497 kts | 95° |
| 2026-04-14 17:34 | 39.63742 | 111.46423 | 35071 ft | 497 kts | 95° |
| 2026-04-14 17:34 | 39.63164 | 111.55366 | 35074 ft | 497 kts | 95° |
| 2026-04-14 17:35 | 39.62585 | 111.64212 | 35066 ft | 489 kts | 95° |
| 2026-04-14 17:35 | 39.62003 | 111.72996 | 35070 ft | 488 kts | 95° |
| 2026-04-14 17:36 | 39.61415 | 111.81771 | 35079 ft | 488 kts | 95° |
| 2026-04-14 17:36 | 39.60829 | 111.90429 | 35064 ft | 488 kts | 95° |
| 2026-04-14 17:37 | 39.60234 | 111.99120 | 35075 ft | 488 kts | 95° |
| 2026-04-14 17:37 | 39.59661 | 112.07388 | 35076 ft | 489 kts | 95° |
| 2026-04-14 17:38 | 39.59148 | 112.14730 | 35087 ft | 490 kts | 95° |
| 2026-04-14 17:38 | 39.58690 | 112.21221 | 35087 ft | 491 kts | 95° |
| 2026-04-14 17:39 | 39.58064 | 112.30014 | 35084 ft | 493 kts | 96° |
| 2026-04-14 17:39 | 39.57423 | 112.38931 | 35100 ft | 500 kts | 96° |